createdAt,value
2019-05-15T00:00:48.150Z,3.97
2019-05-15T00:01:48.767Z,4.06
2019-05-15T00:02:48.181Z,4.16
2019-05-15T00:03:49.086Z,4.10
2019-05-15T00:04:46.404Z,4.19
2019-05-15T00:05:49.321Z,4.12
2019-05-15T00:06:48.632Z,4.24
2019-05-15T00:07:48.397Z,4.07
2019-05-15T00:08:48.025Z,4.19
2019-05-15T00:09:48.975Z,4.14
2019-05-15T00:10:48.456Z,4.19
2019-05-15T00:11:48.129Z,4.26
2019-05-15T00:12:48.465Z,4.10
2019-05-15T00:13:48.289Z,4.10
2019-05-15T00:14:48.382Z,4.10
2019-05-15T00:15:48.144Z,4.06
2019-05-15T00:16:48.168Z,4.04
2019-05-15T00:17:48.341Z,4.04
2019-05-15T00:18:48.174Z,4.04
2019-05-15T00:19:48.512Z,4.10
2019-05-15T00:20:49.342Z,4.00
2019-05-15T00:21:46.227Z,3.98
2019-05-15T00:22:48.329Z,4.00
2019-05-15T00:23:46.201Z,4.08
2019-05-15T00:24:46.190Z,4.04
2019-05-15T00:25:48.562Z,3.98
2019-05-15T00:26:48.050Z,4.04
2019-05-15T00:27:46.157Z,4.04
2019-05-15T00:28:47.961Z,4.06
2019-05-15T00:29:46.135Z,4.07
2019-05-15T00:30:48.013Z,4.00
2019-05-15T00:31:48.509Z,3.97
2019-05-15T00:32:48.517Z,3.94
2019-05-15T00:33:48.115Z,3.90
2019-05-15T00:34:46.084Z,3.80
2019-05-15T00:35:48.422Z,3.86
2019-05-15T00:36:46.069Z,3.86
2019-05-15T00:37:46.050Z,3.88
2019-05-15T00:38:48.212Z,3.80
2019-05-15T00:39:48.437Z,3.80
2019-05-15T00:40:46.019Z,3.85
2019-05-15T00:41:53.285Z,3.82
2019-05-15T00:42:48.866Z,3.82
2019-05-15T00:43:45.986Z,3.85
2019-05-15T00:44:45.975Z,3.82
2019-05-15T00:45:45.965Z,3.85
2019-05-15T00:46:45.963Z,3.83
2019-05-15T00:47:45.944Z,3.72
2019-05-15T00:48:45.939Z,3.78
2019-05-15T00:49:45.922Z,3.65
2019-05-15T00:50:45.913Z,3.62
2019-05-15T00:51:48.468Z,3.70
2019-05-15T00:52:48.292Z,3.70
2019-05-15T00:53:48.154Z,3.65
2019-05-15T00:54:48.248Z,3.71
2019-05-15T00:55:45.856Z,3.70
2019-05-15T00:56:45.853Z,3.70
2019-05-15T00:57:48.334Z,3.67
2019-05-15T00:58:48.083Z,3.61
2019-05-15T00:59:45.818Z,3.61
2019-05-15T01:00:45.802Z,3.58
2019-05-15T01:01:45.804Z,3.62
2019-05-15T01:02:45.781Z,3.62
2019-05-15T01:03:45.770Z,3.65
2019-05-15T01:04:47.853Z,3.62
2019-05-15T01:05:47.862Z,3.68
2019-05-15T01:06:45.746Z,3.70
2019-05-15T01:07:47.893Z,3.71
2019-05-15T01:08:48.122Z,3.67
2019-05-15T01:09:45.706Z,3.68
2019-05-15T01:10:45.695Z,3.70
2019-05-15T01:11:45.691Z,3.67
2019-05-15T01:12:45.675Z,3.70
2019-05-15T01:13:48.030Z,3.72
2019-05-15T01:14:45.653Z,3.68
2019-05-15T01:15:45.646Z,3.64
2019-05-15T01:16:45.637Z,3.62
2019-05-15T01:17:45.619Z,3.65
2019-05-15T01:18:45.618Z,3.60
2019-05-15T01:19:45.598Z,3.70
2019-05-15T01:20:45.586Z,3.68
2019-05-15T01:21:47.911Z,3.62
2019-05-15T01:22:45.565Z,3.72
2019-05-15T01:23:45.555Z,3.65
2019-05-15T01:24:45.543Z,3.64
2019-05-15T01:25:45.532Z,3.58
2019-05-15T01:26:45.533Z,3.54
2019-05-15T01:27:45.511Z,3.50
2019-05-15T01:28:45.500Z,3.49
2019-05-15T01:29:45.488Z,3.52
2019-05-15T01:30:45.477Z,3.52
2019-05-15T01:31:45.477Z,3.47
2019-05-15T01:32:45.461Z,3.50
2019-05-15T01:33:45.445Z,3.43
2019-05-15T01:34:45.438Z,3.36
2019-05-15T01:35:45.421Z,3.46
2019-05-15T01:36:45.429Z,3.33
2019-05-15T01:37:45.400Z,3.43
2019-05-15T01:38:45.393Z,3.36
2019-05-15T01:39:45.380Z,3.36
2019-05-15T01:40:45.368Z,3.36
2019-05-15T01:41:45.365Z,3.43
2019-05-15T01:42:45.358Z,3.46
2019-05-15T01:43:45.338Z,3.43
2019-05-15T01:44:45.324Z,3.46
2019-05-15T01:45:45.313Z,3.36
2019-05-15T01:46:45.309Z,3.34
2019-05-15T01:47:45.299Z,3.25
2019-05-15T01:48:45.280Z,3.30
2019-05-15T01:49:45.268Z,3.25
2019-05-15T01:50:45.261Z,3.13
2019-05-15T01:51:45.246Z,3.16
2019-05-15T01:52:45.243Z,3.10
2019-05-15T01:53:45.224Z,2.97
2019-05-15T01:54:45.214Z,3.03
2019-05-15T01:55:45.204Z,2.85
2019-05-15T01:56:45.192Z,2.82
2019-05-15T01:57:45.188Z,2.77
2019-05-15T01:58:45.169Z,2.69
2019-05-15T01:59:56.879Z,2.76
2019-05-15T02:00:48.283Z,2.67
2019-05-15T02:01:45.141Z,2.69
2019-05-15T02:02:45.135Z,2.56
2019-05-15T02:03:45.115Z,2.58
2019-05-15T02:04:45.105Z,2.53
2019-05-15T02:05:45.095Z,2.48
2019-05-15T02:06:45.108Z,2.41
2019-05-15T02:07:45.081Z,2.38
2019-05-15T02:08:45.061Z,2.34
2019-05-15T02:09:45.049Z,2.41
2019-05-15T02:10:45.038Z,2.37
2019-05-15T02:11:45.028Z,2.26
2019-05-15T02:12:45.026Z,2.27
2019-05-15T02:13:45.005Z,2.26
2019-05-15T02:14:44.995Z,2.20
2019-05-15T02:15:44.982Z,2.13
2019-05-15T02:16:44.972Z,2.09
2019-05-15T02:17:44.972Z,2.09
2019-05-15T02:18:44.951Z,1.97
2019-05-15T02:19:44.940Z,1.98
2019-05-15T02:20:44.928Z,1.87
2019-05-15T02:21:44.916Z,1.93
2019-05-15T02:22:44.915Z,1.80
2019-05-15T02:23:44.897Z,1.78
2019-05-15T02:24:44.891Z,1.76
2019-05-15T02:25:44.882Z,1.78
2019-05-15T02:26:44.864Z,1.73
2019-05-15T02:27:44.860Z,1.76
2019-05-15T02:28:44.848Z,1.78
2019-05-15T02:29:44.835Z,1.68
2019-05-15T02:30:44.820Z,1.79
2019-05-15T02:31:44.811Z,1.65
2019-05-15T02:32:44.809Z,1.72
2019-05-15T02:33:44.790Z,1.69
2019-05-15T02:34:44.779Z,1.71
2019-05-15T02:35:44.767Z,1.73
2019-05-15T02:36:44.757Z,1.73
2019-05-15T02:37:44.754Z,1.68
2019-05-15T02:38:44.734Z,1.73
2019-05-15T02:39:44.724Z,1.79
2019-05-15T02:40:44.714Z,1.69
2019-05-15T02:41:44.703Z,1.79
2019-05-15T02:42:44.703Z,1.64
2019-05-15T02:43:44.679Z,1.78
2019-05-15T02:44:44.669Z,1.76
2019-05-15T02:45:44.658Z,1.75
2019-05-15T02:46:44.647Z,1.89
2019-05-15T02:47:44.644Z,1.83
2019-05-15T02:48:44.626Z,1.87
2019-05-15T02:49:44.617Z,2.04
2019-05-15T02:50:44.604Z,2.02
2019-05-15T02:51:44.593Z,1.99
2019-05-15T02:52:45.652Z,2.06
2019-05-15T02:53:44.571Z,1.90
2019-05-15T02:54:44.561Z,2.02
2019-05-15T02:55:44.552Z,2.10
2019-05-15T02:56:44.538Z,2.08
2019-05-15T02:57:44.533Z,2.08
2019-05-15T02:58:44.528Z,2.09
2019-05-15T02:59:44.507Z,2.09
2019-05-15T03:00:49.595Z,2.06
2019-05-15T03:01:49.092Z,2.13
2019-05-15T03:02:44.473Z,2.13
2019-05-15T03:03:44.472Z,2.06
2019-05-15T03:04:44.450Z,2.16
2019-05-15T03:05:44.441Z,2.20
2019-05-15T03:06:44.430Z,2.13
2019-05-15T03:07:44.419Z,2.27
2019-05-15T03:08:44.419Z,2.20
2019-05-15T03:09:44.397Z,2.27
2019-05-15T03:10:44.393Z,2.33
2019-05-15T03:11:44.393Z,2.30
2019-05-15T03:12:44.364Z,2.37
2019-05-15T03:13:44.370Z,2.34
2019-05-15T03:14:44.345Z,2.35
2019-05-15T03:15:44.332Z,2.34
2019-05-15T03:16:44.326Z,2.34
2019-05-15T03:17:44.317Z,2.26
2019-05-15T03:18:44.313Z,2.23
2019-05-15T03:19:44.289Z,2.20
2019-05-15T03:20:44.278Z,2.17
2019-05-15T03:21:44.268Z,2.30
2019-05-15T03:22:44.256Z,2.23
2019-05-15T03:23:44.256Z,2.19
2019-05-15T03:24:44.235Z,2.20
2019-05-15T03:25:44.225Z,2.15
2019-05-15T03:26:44.217Z,2.16
2019-05-15T03:27:44.202Z,2.02
2019-05-15T03:28:44.203Z,2.04
2019-05-15T03:29:44.180Z,1.98
2019-05-15T03:31:12.331Z,1.91
2019-05-15T03:32:01.287Z,2.01
2019-05-15T03:32:53.538Z,1.90
2019-05-15T03:33:47.132Z,1.93
2019-05-15T03:34:47.648Z,1.85
2019-05-15T03:35:45.230Z,1.85
2019-05-15T03:36:45.699Z,1.90
2019-05-15T03:37:44.094Z,1.87
2019-05-15T03:38:44.094Z,1.90
2019-05-15T03:39:46.974Z,1.89
2019-05-15T03:40:45.061Z,1.87
2019-05-15T03:41:44.049Z,1.94
2019-05-15T03:42:44.041Z,1.93
2019-05-15T03:43:44.039Z,2.01
2019-05-15T03:44:44.020Z,1.97
2019-05-15T03:45:44.010Z,1.98
2019-05-15T03:46:43.994Z,1.94
2019-05-15T03:47:43.987Z,2.06
2019-05-15T03:48:43.983Z,1.91
2019-05-15T03:49:43.993Z,1.99
2019-05-15T03:50:43.962Z,1.97
2019-05-15T03:51:45.863Z,1.98
2019-05-15T03:52:43.930Z,2.02
2019-05-15T03:53:43.929Z,2.01
2019-05-15T03:54:43.907Z,2.06
2019-05-15T03:55:43.897Z,1.99
2019-05-15T03:56:43.888Z,2.02
2019-05-15T03:57:43.877Z,2.02
2019-05-15T03:58:43.898Z,2.06
2019-05-15T03:59:43.852Z,2.17
2019-05-15T04:00:43.843Z,2.12
2019-05-15T04:01:44.250Z,2.06
2019-05-15T04:02:43.825Z,2.09
2019-05-15T04:03:43.808Z,2.10
2019-05-15T04:04:43.807Z,2.09
2019-05-15T04:05:43.791Z,2.15
2019-05-15T04:06:43.776Z,2.13
2019-05-15T04:07:43.772Z,2.12
2019-05-15T04:08:43.757Z,2.13
2019-05-15T04:09:43.752Z,2.27
2019-05-15T04:10:43.733Z,2.26
2019-05-15T04:11:43.722Z,2.31
2019-05-15T04:12:43.715Z,2.44
2019-05-15T04:13:43.701Z,2.45
2019-05-15T04:14:43.699Z,2.58
2019-05-15T04:15:43.678Z,2.49
2019-05-15T04:16:43.666Z,2.67
2019-05-15T04:17:43.665Z,2.69
2019-05-15T04:18:43.650Z,2.69
2019-05-15T04:19:43.646Z,2.74
2019-05-15T04:20:43.624Z,2.92
2019-05-15T04:21:45.077Z,3.00
2019-05-15T04:22:43.601Z,3.07
2019-05-15T04:23:43.597Z,3.09
2019-05-15T04:24:43.594Z,3.27
2019-05-15T04:25:43.578Z,3.36
2019-05-15T04:26:43.559Z,3.42
2019-05-15T04:27:43.547Z,3.49
2019-05-15T04:28:43.535Z,3.57
2019-05-15T04:29:43.535Z,3.53
2019-05-15T04:30:43.515Z,3.68
2019-05-15T04:31:55.611Z,3.62
2019-05-15T04:32:44.494Z,3.90
2019-05-15T04:33:43.483Z,3.83
2019-05-15T04:34:43.481Z,3.98
2019-05-15T04:35:43.462Z,4.08
2019-05-15T04:36:44.643Z,4.10
2019-05-15T04:37:43.447Z,4.06
2019-05-15T04:38:43.429Z,4.16
2019-05-15T04:39:43.427Z,4.12
2019-05-15T04:40:43.409Z,4.16
2019-05-15T04:41:43.397Z,4.16
2019-05-15T04:42:43.387Z,4.10
2019-05-15T04:43:45.095Z,4.01
2019-05-15T04:44:43.376Z,3.97
2019-05-15T04:45:43.353Z,4.06
2019-05-15T04:46:43.344Z,4.06
2019-05-15T04:47:43.334Z,4.08
2019-05-15T04:48:43.321Z,4.07
2019-05-15T04:49:43.323Z,4.07
2019-05-15T04:50:43.300Z,4.04
2019-05-15T04:51:43.290Z,4.10
2019-05-15T04:52:43.676Z,4.04
2019-05-15T04:53:43.269Z,3.98
2019-05-15T04:54:43.274Z,3.97
2019-05-15T04:55:43.248Z,4.08
2019-05-15T04:56:43.240Z,4.15
2019-05-15T04:57:43.251Z,4.21
2019-05-15T04:58:43.215Z,4.26
2019-05-15T04:59:43.218Z,4.25
2019-05-15T05:00:43.203Z,4.43
2019-05-15T05:01:43.184Z,4.34
2019-05-15T05:02:43.171Z,4.44
2019-05-15T05:03:43.172Z,4.57
2019-05-15T05:04:43.162Z,4.58
2019-05-15T05:05:43.141Z,4.64
2019-05-15T05:06:43.134Z,4.75
2019-05-15T05:07:43.119Z,4.73
2019-05-15T05:08:43.116Z,4.83
2019-05-15T05:09:43.137Z,4.88
2019-05-15T05:10:43.088Z,4.88
2019-05-15T05:11:43.075Z,4.91
2019-05-15T05:12:43.072Z,4.94
2019-05-15T05:13:43.059Z,4.91
2019-05-15T05:14:43.044Z,5.01
2019-05-15T05:15:43.039Z,4.96
2019-05-15T05:16:43.023Z,4.95
2019-05-15T05:17:43.012Z,5.05
2019-05-15T05:18:43.000Z,5.13
2019-05-15T05:19:42.988Z,5.16
2019-05-15T05:20:42.985Z,5.23
2019-05-15T05:21:42.966Z,5.35
2019-05-15T05:22:42.955Z,5.27
2019-05-15T05:23:42.949Z,5.34
2019-05-15T05:24:42.933Z,5.45
2019-05-15T05:25:42.930Z,5.50
2019-05-15T05:26:42.911Z,5.53
2019-05-15T05:27:42.900Z,5.48
2019-05-15T05:28:42.891Z,5.53
2019-05-15T05:29:42.881Z,5.60
2019-05-15T05:30:42.877Z,5.57
2019-05-15T05:31:42.859Z,5.56
2019-05-15T05:32:42.848Z,5.64
2019-05-15T05:33:42.836Z,5.83
2019-05-15T05:34:42.830Z,5.86
2019-05-15T05:35:42.825Z,5.98
2019-05-15T05:36:42.808Z,6.07
2019-05-15T05:37:42.791Z,6.14
2019-05-15T05:38:42.781Z,6.09
2019-05-15T05:39:42.770Z,6.09
2019-05-15T05:40:42.769Z,6.14
2019-05-15T05:41:42.747Z,6.13
2019-05-15T05:42:42.736Z,6.22
2019-05-15T05:43:42.726Z,6.26
2019-05-15T05:44:42.898Z,6.35
2019-05-15T05:45:42.712Z,6.40
2019-05-15T05:46:42.696Z,6.47
2019-05-15T05:47:42.685Z,6.51
2019-05-15T05:48:42.672Z,6.47
2019-05-15T05:49:42.660Z,6.53
2019-05-15T05:50:44.430Z,6.48
2019-05-15T05:51:42.639Z,6.66
2019-05-15T05:52:42.630Z,6.62
2019-05-15T05:53:42.619Z,6.48
2019-05-15T05:54:42.608Z,6.47
2019-05-15T05:55:42.631Z,6.61
2019-05-15T05:56:42.584Z,6.66
2019-05-15T05:57:42.576Z,6.72
2019-05-15T05:58:42.572Z,6.89
2019-05-15T05:59:42.554Z,6.89
2019-05-15T06:00:42.545Z,6.94
2019-05-15T06:01:44.107Z,6.86
2019-05-15T06:02:47.783Z,7.02
2019-05-15T06:03:43.512Z,7.16
2019-05-15T06:04:42.499Z,7.19
2019-05-15T06:05:42.494Z,7.29
2019-05-15T06:06:42.487Z,7.31
2019-05-15T06:07:42.469Z,7.40
2019-05-15T06:08:42.481Z,7.44
2019-05-15T06:09:42.445Z,7.66
2019-05-15T06:10:42.434Z,7.69
2019-05-15T06:11:42.432Z,7.85
2019-05-15T06:12:42.414Z,7.93
2019-05-15T06:13:42.402Z,7.94
2019-05-15T06:14:42.391Z,7.97
2019-05-15T06:15:42.382Z,8.11
2019-05-15T06:16:42.379Z,8.20
2019-05-15T06:17:42.359Z,8.33
2019-05-15T06:18:42.349Z,8.54
2019-05-15T06:19:42.338Z,8.66
2019-05-15T06:20:42.332Z,8.91
2019-05-15T06:21:54.595Z,8.99
2019-05-15T06:22:43.304Z,9.05
2019-05-15T06:23:45.477Z,9.24
2019-05-15T06:24:42.287Z,9.34
2019-05-15T06:25:42.272Z,9.25
2019-05-15T06:26:42.269Z,9.27
2019-05-15T06:27:42.249Z,9.46
2019-05-15T06:28:42.238Z,9.49
2019-05-15T06:29:42.227Z,9.64
2019-05-15T06:30:42.216Z,9.91
2019-05-15T06:31:42.216Z,10.18
2019-05-15T06:32:42.196Z,10.39
2019-05-15T06:33:42.185Z,10.52
2019-05-15T06:34:42.174Z,10.60
2019-05-15T06:35:42.162Z,10.58
2019-05-15T06:36:42.164Z,10.73
2019-05-15T06:37:42.141Z,10.84
2019-05-15T06:38:42.131Z,10.94
2019-05-15T06:39:42.120Z,11.32
2019-05-15T06:40:42.110Z,11.71
2019-05-15T06:41:42.104Z,11.96
2019-05-15T06:42:42.087Z,12.06
2019-05-15T06:43:42.076Z,12.79
2019-05-15T06:44:42.064Z,13.95
2019-05-15T06:45:42.054Z,13.80
2019-05-15T06:46:42.053Z,13.46
2019-05-15T06:47:42.032Z,13.33
2019-05-15T06:48:42.021Z,13.18
2019-05-15T06:49:42.012Z,12.75
2019-05-15T06:50:42.004Z,12.19
2019-05-15T06:51:41.997Z,12.29
2019-05-15T06:52:41.984Z,12.62
2019-05-15T06:53:41.970Z,12.99
2019-05-15T06:54:41.958Z,13.17
2019-05-15T06:55:41.946Z,13.56
2019-05-15T06:56:41.943Z,14.47
2019-05-15T06:57:41.925Z,15.19
2019-05-15T06:58:41.933Z,15.45
2019-05-15T06:59:41.911Z,15.24
2019-05-15T07:00:41.891Z,15.12
2019-05-15T07:01:42.082Z,15.61
2019-05-15T07:02:41.870Z,16.04
2019-05-15T07:03:41.858Z,15.42
2019-05-15T07:04:41.847Z,15.02
2019-05-15T07:05:41.838Z,14.69
2019-05-15T07:06:41.827Z,14.44
2019-05-15T07:07:41.822Z,14.43
2019-05-15T07:08:41.803Z,13.84
2019-05-15T07:09:41.792Z,13.49
2019-05-15T07:10:41.785Z,13.20
2019-05-15T07:11:41.771Z,13.24
2019-05-15T07:12:41.769Z,13.81
2019-05-15T07:13:41.752Z,13.81
2019-05-15T07:14:41.738Z,13.92
2019-05-15T07:15:41.725Z,14.09
2019-05-15T07:16:41.715Z,13.71
2019-05-15T07:17:41.717Z,13.37
2019-05-15T07:18:41.693Z,13.21
2019-05-15T07:19:41.682Z,12.96
2019-05-15T07:20:41.673Z,12.56
2019-05-15T07:21:41.660Z,12.16
2019-05-15T07:22:41.667Z,12.01
2019-05-15T07:23:41.640Z,11.97
2019-05-15T07:24:41.630Z,12.16
2019-05-15T07:25:41.617Z,12.23
2019-05-15T07:26:41.606Z,12.38
2019-05-15T07:27:41.608Z,12.19
2019-05-15T07:28:41.587Z,12.19
2019-05-15T07:29:41.573Z,12.20
2019-05-15T07:30:41.564Z,12.39
2019-05-15T07:31:41.553Z,12.39
2019-05-15T07:32:41.553Z,12.49
2019-05-15T07:33:43.857Z,12.56
2019-05-15T07:34:41.519Z,12.59
2019-05-15T07:35:41.511Z,12.26
2019-05-15T07:36:41.502Z,12.15
2019-05-15T07:37:41.520Z,12.19
2019-05-15T07:38:41.473Z,12.11
2019-05-15T07:39:41.463Z,12.08
2019-05-15T07:40:41.456Z,11.86
2019-05-15T07:41:41.440Z,11.70
2019-05-15T07:42:41.442Z,11.61
2019-05-15T07:43:41.417Z,11.64
2019-05-15T07:44:41.406Z,11.54
2019-05-15T07:45:43.710Z,11.44
2019-05-15T07:46:41.385Z,11.36
2019-05-15T07:47:41.385Z,11.47
2019-05-15T07:48:43.992Z,11.52
2019-05-15T07:49:41.355Z,11.61
2019-05-15T07:50:41.340Z,11.57
2019-05-15T07:51:41.329Z,11.65
2019-05-15T07:52:41.326Z,11.68
2019-05-15T07:53:41.309Z,11.56
2019-05-15T07:54:41.295Z,11.44
2019-05-15T07:55:41.285Z,11.47
2019-05-15T07:56:41.275Z,11.59
2019-05-15T07:57:41.274Z,11.62
2019-05-15T07:58:41.257Z,11.78
2019-05-15T07:59:41.250Z,11.78
2019-05-15T08:00:41.231Z,11.68
2019-05-15T08:01:41.221Z,11.78
2019-05-15T08:02:41.223Z,11.90
2019-05-15T08:03:55.635Z,11.99
2019-05-15T08:04:42.190Z,11.93
2019-05-15T08:05:55.072Z,11.71
2019-05-15T08:06:42.165Z,11.74
2019-05-15T08:07:41.185Z,11.80
2019-05-15T08:08:41.151Z,11.68
2019-05-15T08:09:41.134Z,11.74
2019-05-15T08:10:41.123Z,11.65
2019-05-15T08:11:41.112Z,11.67
2019-05-15T08:12:41.104Z,11.89
2019-05-15T08:13:41.101Z,12.08
2019-05-15T08:14:41.082Z,12.08
2019-05-15T08:15:41.073Z,12.08
2019-05-15T08:16:41.060Z,12.19
2019-05-15T08:18:00.095Z,12.41
2019-05-15T08:18:42.048Z,12.41
2019-05-15T08:19:41.027Z,12.46
2019-05-15T08:20:41.016Z,12.52
2019-05-15T08:21:41.019Z,12.45
2019-05-15T08:22:40.998Z,12.64
2019-05-15T08:23:40.992Z,12.63
2019-05-15T08:24:40.986Z,12.56
2019-05-15T08:25:40.963Z,12.62
2019-05-15T08:26:45.255Z,12.60
2019-05-15T08:27:40.945Z,12.46
2019-05-15T08:28:40.937Z,12.67
2019-05-15T08:29:40.918Z,12.48
2019-05-15T08:30:40.966Z,12.62
2019-05-15T08:31:40.925Z,12.79
2019-05-15T08:32:40.889Z,12.97
2019-05-15T08:33:40.885Z,13.07
2019-05-15T08:34:40.864Z,13.06
2019-05-15T08:35:44.601Z,13.03
2019-05-15T08:36:41.842Z,12.87
2019-05-15T08:37:40.843Z,12.67
2019-05-15T08:38:40.832Z,12.74
2019-05-15T08:39:40.812Z,12.79
2019-05-15T08:40:41.264Z,12.63
2019-05-15T08:41:40.788Z,12.57
2019-05-15T08:42:42.023Z,12.49
2019-05-15T08:43:40.774Z,12.62
2019-05-15T08:44:40.754Z,12.63
2019-05-15T08:45:40.750Z,12.57
2019-05-15T08:46:40.732Z,12.52
2019-05-15T08:47:40.723Z,12.41
2019-05-15T08:48:40.719Z,12.45
2019-05-15T08:49:41.168Z,12.62
2019-05-15T08:50:40.691Z,12.66
2019-05-15T08:51:40.683Z,12.62
2019-05-15T08:52:40.669Z,12.64
2019-05-15T08:53:40.664Z,12.64
2019-05-15T08:54:40.646Z,12.79
2019-05-15T08:55:40.635Z,12.74
2019-05-15T08:56:40.623Z,12.77
2019-05-15T08:57:40.611Z,12.78
2019-05-15T08:58:40.609Z,12.75
2019-05-15T08:59:40.589Z,12.64
2019-05-15T09:00:43.765Z,12.51
2019-05-15T09:01:40.568Z,12.56
2019-05-15T09:02:40.564Z,12.49
2019-05-15T09:03:40.555Z,12.52
2019-05-15T09:04:40.536Z,12.39
2019-05-15T09:05:40.526Z,12.41
2019-05-15T09:06:41.524Z,12.44
2019-05-15T09:07:40.506Z,12.46
2019-05-15T09:08:40.500Z,12.49
2019-05-15T09:09:40.483Z,12.62
2019-05-15T09:10:40.470Z,12.78
2019-05-15T09:11:40.459Z,13.11
2019-05-15T09:12:40.447Z,13.46
2019-05-15T09:13:43.103Z,13.69
2019-05-15T09:14:40.425Z,13.91
2019-05-15T09:15:40.417Z,13.99
2019-05-15T09:16:40.402Z,13.55
2019-05-15T09:17:40.391Z,13.59
2019-05-15T09:18:40.424Z,13.55
2019-05-15T09:19:40.368Z,13.59
2019-05-15T09:20:40.362Z,13.69
2019-05-15T09:21:40.346Z,13.70
2019-05-15T09:22:40.335Z,13.70
2019-05-15T09:23:40.338Z,13.67
2019-05-15T09:24:40.326Z,13.70
2019-05-15T09:25:40.307Z,13.56
2019-05-15T09:26:40.676Z,13.69
2019-05-15T09:27:40.279Z,13.77
2019-05-15T09:28:40.267Z,13.79
2019-05-15T09:29:40.266Z,13.81
2019-05-15T09:30:40.252Z,13.67
2019-05-15T09:31:40.234Z,13.83
2019-05-15T09:32:40.223Z,13.77
2019-05-15T09:33:40.211Z,13.80
2019-05-15T09:34:50.791Z,13.84
2019-05-15T09:35:41.193Z,13.98
2019-05-15T09:36:44.842Z,14.10
2019-05-15T09:37:41.166Z,14.07
2019-05-15T09:38:40.155Z,13.89
2019-05-15T09:39:40.154Z,13.58
2019-05-15T09:40:46.191Z,13.55
2019-05-15T09:41:41.125Z,13.58
2019-05-15T09:42:40.112Z,13.67
2019-05-15T09:43:42.296Z,13.73
2019-05-15T09:44:40.098Z,13.84
2019-05-15T09:45:40.077Z,14.06
2019-05-15T09:46:40.074Z,14.24
2019-05-15T09:47:40.058Z,14.24
2019-05-15T09:48:40.045Z,14.20
2019-05-15T09:49:40.042Z,14.04
2019-05-15T09:50:40.023Z,13.91
2019-05-15T09:51:40.013Z,13.96
2019-05-15T09:52:40.000Z,13.96
2019-05-15T09:53:39.989Z,14.02
2019-05-15T09:54:39.991Z,13.98
2019-05-15T09:55:39.975Z,14.06
2019-05-15T09:56:39.956Z,13.98
2019-05-15T09:57:39.946Z,13.91
2019-05-15T09:58:39.944Z,13.58
2019-05-15T09:59:39.932Z,13.56
2019-05-15T10:00:39.913Z,13.70
2019-05-15T10:01:39.902Z,13.95
2019-05-15T10:02:39.892Z,14.02
2019-05-15T10:03:44.160Z,14.16
2019-05-15T10:04:39.908Z,14.32
2019-05-15T10:05:39.862Z,14.54
2019-05-15T10:06:39.846Z,14.52
2019-05-15T10:07:40.572Z,14.54
2019-05-15T10:08:40.054Z,14.68
2019-05-15T10:09:39.826Z,14.95
2019-05-15T10:10:39.806Z,15.21
2019-05-15T10:11:39.793Z,15.38
2019-05-15T10:12:39.783Z,15.33
2019-05-15T10:13:39.770Z,14.94
2019-05-15T10:14:39.771Z,14.64
2019-05-15T10:15:39.747Z,14.47
2019-05-15T10:16:39.736Z,14.38
2019-05-15T10:17:39.728Z,14.17
2019-05-15T10:18:39.726Z,13.92
2019-05-15T10:19:39.713Z,13.80
2019-05-15T10:20:39.694Z,13.88
2019-05-15T10:21:40.267Z,13.79
2019-05-15T10:22:39.674Z,13.49
2019-05-15T10:23:40.328Z,13.79
2019-05-15T10:24:39.662Z,13.69
2019-05-15T10:25:39.638Z,13.44
2019-05-15T10:26:39.714Z,13.38
2019-05-15T10:27:39.989Z,13.44
2019-05-15T10:28:39.675Z,13.51
2019-05-15T10:29:39.605Z,13.56
2019-05-15T10:30:39.654Z,13.69
2019-05-15T10:31:39.574Z,13.63
2019-05-15T10:32:39.870Z,13.67
2019-05-15T10:33:39.563Z,13.71
2019-05-15T10:34:39.549Z,13.77
2019-05-15T10:35:39.534Z,13.71
2019-05-15T10:36:39.518Z,13.56
2019-05-15T10:37:39.509Z,13.52
2019-05-15T10:38:39.495Z,13.49
2019-05-15T10:39:39.483Z,13.69
2019-05-15T10:40:49.717Z,13.73
2019-05-15T10:41:40.461Z,13.81
2019-05-15T10:42:40.080Z,13.81
2019-05-15T10:43:46.156Z,13.87
2019-05-15T10:44:40.436Z,13.92
2019-05-15T10:45:42.456Z,13.87
2019-05-15T10:46:39.405Z,13.95
2019-05-15T10:47:39.404Z,13.92
2019-05-15T10:48:39.396Z,13.84
2019-05-15T10:49:39.373Z,13.83
2019-05-15T10:50:39.372Z,13.80
2019-05-15T10:51:39.818Z,13.87
2019-05-15T10:52:39.338Z,13.79
2019-05-15T10:53:39.337Z,13.71
2019-05-15T10:54:39.331Z,13.63
2019-05-15T10:55:39.647Z,13.77
2019-05-15T10:56:39.295Z,13.87
2019-05-15T10:57:43.057Z,13.83
2019-05-15T10:58:40.270Z,13.79
2019-05-15T10:59:39.261Z,13.70
2019-05-15T11:00:39.261Z,13.67
2019-05-15T11:01:39.242Z,13.70
2019-05-15T11:02:39.601Z,13.71
2019-05-15T11:03:39.987Z,13.77
2019-05-15T11:04:39.359Z,13.83
2019-05-15T11:05:45.274Z,13.88
2019-05-15T11:06:40.183Z,13.83
2019-05-15T11:07:39.574Z,13.81
2019-05-15T11:08:40.707Z,13.87
2019-05-15T11:09:40.624Z,13.83
2019-05-15T11:10:41.854Z,13.76
2019-05-15T11:11:39.125Z,13.67
2019-05-15T11:12:39.115Z,13.58
2019-05-15T11:13:39.103Z,13.36
2019-05-15T11:14:39.095Z,13.52
2019-05-15T11:15:42.450Z,13.51
2019-05-15T11:16:39.328Z,13.51
2019-05-15T11:17:39.062Z,13.56
2019-05-15T11:18:39.579Z,13.32
2019-05-15T11:19:40.666Z,13.33
2019-05-15T11:20:41.206Z,13.46
2019-05-15T11:21:39.019Z,13.52
2019-05-15T11:22:42.777Z,13.54
2019-05-15T11:23:42.482Z,13.74
2019-05-15T11:24:38.997Z,13.94
2019-05-15T11:25:38.994Z,13.94
2019-05-15T11:26:39.207Z,13.99
2019-05-15T11:27:39.347Z,14.01
2019-05-15T11:28:39.410Z,14.06
2019-05-15T11:29:38.924Z,14.19
2019-05-15T11:30:39.516Z,14.28
2019-05-15T11:31:39.409Z,14.35
2019-05-15T11:32:39.383Z,14.20
2019-05-15T11:33:38.881Z,14.17
2019-05-15T11:34:38.868Z,13.96
2019-05-15T11:35:43.971Z,13.92
2019-05-15T11:36:39.845Z,13.89
2019-05-15T11:37:45.858Z,13.87
2019-05-15T11:38:39.826Z,13.98
2019-05-15T11:39:45.856Z,13.96
2019-05-15T11:40:39.813Z,14.04
2019-05-15T11:41:38.922Z,14.01
2019-05-15T11:42:39.477Z,14.17
2019-05-15T11:43:38.917Z,14.16
2019-05-15T11:44:38.940Z,14.09
2019-05-15T11:45:39.199Z,14.21
2019-05-15T11:46:39.231Z,14.21
2019-05-15T11:47:39.768Z,14.06
2019-05-15T11:48:39.315Z,13.91
2019-05-15T11:49:38.701Z,13.92
2019-05-15T11:50:40.075Z,14.07
2019-05-15T11:51:38.688Z,14.04
2019-05-15T11:52:40.235Z,14.13
2019-05-15T11:53:39.738Z,14.20
2019-05-15T11:54:38.714Z,14.38
2019-05-15T11:55:38.898Z,14.32
2019-05-15T11:56:39.326Z,14.21
2019-05-15T11:57:46.104Z,14.10
2019-05-15T11:58:39.599Z,13.98
2019-05-15T11:59:44.555Z,14.02
2019-05-15T12:00:39.586Z,14.19
2019-05-15T12:01:38.575Z,14.16
2019-05-15T12:02:38.677Z,14.24
2019-05-15T12:03:38.828Z,14.14
2019-05-15T12:04:38.536Z,14.21
2019-05-15T12:05:38.921Z,14.32
2019-05-15T12:06:38.670Z,14.32
2019-05-15T12:07:38.499Z,14.21
2019-05-15T12:08:38.694Z,14.16
2019-05-15T12:09:38.868Z,14.20
2019-05-15T12:10:39.050Z,14.31
2019-05-15T12:11:40.979Z,14.34
2019-05-15T12:12:38.799Z,14.42
2019-05-15T12:13:38.433Z,14.32
2019-05-15T12:14:38.974Z,14.16
2019-05-15T12:15:39.007Z,14.13
2019-05-15T12:16:39.904Z,14.19
2019-05-15T12:17:39.101Z,14.25
2019-05-15T12:18:39.000Z,14.37
2019-05-15T12:19:39.137Z,14.43
2019-05-15T12:20:39.156Z,14.50
2019-05-15T12:21:39.625Z,14.43
2019-05-15T12:22:39.141Z,14.50
2019-05-15T12:23:38.861Z,14.67
2019-05-15T12:24:40.567Z,14.61
2019-05-15T12:25:39.332Z,14.52
2019-05-15T12:26:39.414Z,14.38
2019-05-15T12:27:39.851Z,14.19
2019-05-15T12:28:40.606Z,14.39
2019-05-15T12:29:39.850Z,14.39
2019-05-15T12:30:40.310Z,14.37
2019-05-15T12:31:38.977Z,14.44
2019-05-15T12:32:40.344Z,14.39
2019-05-15T12:33:38.688Z,14.37
2019-05-15T12:34:38.825Z,14.34
2019-05-15T12:36:51.951Z,14.27
2019-05-15T12:37:40.066Z,14.17
2019-05-15T12:38:39.818Z,14.14
2019-05-15T12:39:40.985Z,14.29
2019-05-15T13:00:38.409Z,13.24
2019-05-15T13:01:38.673Z,13.30
2019-05-15T13:02:38.739Z,13.51
2019-05-15T13:03:38.382Z,13.44
2019-05-15T13:04:38.943Z,13.33
2019-05-15T13:05:39.271Z,13.32
2019-05-15T13:06:47.782Z,13.33
2019-05-15T13:07:38.854Z,13.25
2019-05-15T13:08:38.608Z,13.20
2019-05-15T13:09:38.210Z,13.24
2019-05-15T13:10:38.667Z,13.09
2019-05-15T13:11:37.892Z,13.12
2019-05-15T13:12:47.557Z,13.02
2019-05-15T13:13:38.772Z,12.93
2019-05-15T13:14:38.916Z,12.87
2019-05-15T13:15:41.072Z,12.85
2019-05-15T13:16:39.063Z,12.87
2019-05-15T13:17:38.849Z,12.97
2019-05-15T13:18:38.816Z,12.93
2019-05-15T13:19:38.837Z,12.89
2019-05-15T13:20:38.389Z,12.92
2019-05-15T13:21:38.113Z,12.77
2019-05-15T13:22:39.436Z,12.66
2019-05-15T13:23:38.733Z,12.62
2019-05-15T13:24:38.691Z,12.46
2019-05-15T13:25:39.513Z,12.51
2019-05-15T13:26:38.490Z,12.62